createdAt,value
2018-01-13T00:00:08.796Z,92.44
2018-01-13T00:02:36.205Z,92.37
2018-01-13T00:05:03.634Z,92.21
2018-01-13T00:07:31.045Z,92.09
2018-01-13T00:09:58.444Z,91.88
2018-01-13T00:12:25.869Z,91.75
2018-01-13T00:14:53.285Z,91.84
2018-01-13T00:17:26.509Z,91.69
2018-01-13T00:19:53.917Z,91.86
2018-01-13T00:22:21.333Z,91.87
2018-01-13T00:24:48.753Z,91.91
2018-01-13T00:27:16.191Z,91.84
2018-01-13T00:29:43.597Z,92.04
2018-01-13T00:32:11.004Z,91.98
2018-01-13T00:34:38.432Z,92.54
2018-01-13T00:37:05.834Z,92.52
2018-01-13T00:39:33.253Z,92.74
2018-01-13T00:42:00.665Z,92.78
2018-01-13T00:44:28.081Z,92.54
2018-01-13T00:46:55.493Z,92.88
2018-01-13T00:49:22.901Z,93.17
2018-01-13T00:51:50.321Z,92.74
2018-01-13T00:54:17.750Z,92.16
2018-01-13T00:56:45.157Z,92.18
2018-01-13T00:59:12.569Z,92.41
2018-01-13T01:01:39.993Z,91.84
2018-01-13T01:04:07.402Z,91.47
2018-01-13T01:06:34.816Z,91.52
2018-01-13T01:09:02.232Z,91.11
2018-01-13T01:11:29.651Z,90.92
2018-01-13T01:13:57.063Z,90.93
2018-01-13T01:16:24.470Z,90.87
2018-01-13T01:18:51.889Z,90.82
2018-01-13T01:21:19.296Z,91.02
2018-01-13T01:23:46.709Z,91.69
2018-01-13T01:26:14.121Z,91.59
2018-01-13T01:28:41.533Z,91.11
2018-01-13T01:31:08.940Z,90.95
2018-01-13T01:33:36.373Z,90.84
2018-01-13T01:36:03.781Z,90.71
2018-01-13T01:38:31.197Z,90.57
2018-01-13T01:40:58.622Z,90.60
2018-01-13T01:43:26.025Z,90.70
2018-01-13T01:45:53.437Z,90.72
2018-01-13T01:48:25.761Z,90.69
2018-01-13T01:50:53.193Z,90.88
2018-01-13T01:53:20.612Z,90.78
2018-01-13T01:55:48.025Z,90.76
2018-01-13T01:58:15.441Z,90.77
2018-01-13T02:00:42.849Z,90.71
2018-01-13T02:03:10.265Z,90.86
2018-01-13T02:05:37.681Z,90.67
2018-01-13T02:08:05.125Z,90.69
2018-01-13T02:10:32.543Z,90.53
2018-01-13T02:12:59.944Z,90.42
2018-01-13T02:15:27.361Z,90.39
2018-01-13T02:17:54.781Z,90.36
2018-01-13T02:20:22.194Z,90.22
2018-01-13T02:22:49.609Z,90.08
2018-01-13T02:25:17.026Z,90.13
2018-01-13T02:27:44.436Z,90.17
2018-01-13T02:30:11.855Z,90.15
2018-01-13T02:32:39.533Z,90.09
2018-01-13T02:35:06.945Z,90.12
2018-01-13T02:37:34.374Z,90.05
2018-01-13T02:40:01.777Z,90.14
2018-01-13T02:42:29.222Z,90.03
2018-01-13T02:44:56.636Z,89.92
2018-01-13T02:47:24.066Z,89.72
2018-01-13T02:49:51.487Z,89.66
2018-01-13T02:52:18.912Z,89.69
2018-01-13T02:54:46.333Z,89.67
2018-01-13T02:57:13.740Z,89.77
2018-01-13T02:59:41.144Z,89.77
2018-01-13T03:02:08.567Z,89.80
2018-01-13T03:04:35.975Z,89.66
2018-01-13T03:07:03.386Z,89.66
2018-01-13T03:09:30.789Z,89.71
2018-01-13T03:11:58.214Z,89.77
2018-01-13T03:14:25.625Z,89.82
2018-01-13T03:16:53.037Z,89.91
2018-01-13T03:19:20.475Z,89.96
2018-01-13T03:21:47.877Z,89.88
2018-01-13T03:24:15.297Z,89.92
2018-01-13T03:26:42.709Z,89.92
2018-01-13T03:29:10.133Z,89.92
2018-01-13T03:31:37.574Z,89.84
2018-01-13T03:34:04.985Z,89.82
2018-01-13T03:36:32.397Z,89.74
2018-01-13T03:38:59.809Z,89.71
2018-01-13T03:41:27.237Z,89.65
2018-01-13T03:43:54.647Z,89.66
2018-01-13T03:46:22.057Z,89.48
2018-01-13T03:48:49.482Z,89.54
2018-01-13T03:51:16.897Z,89.37
2018-01-13T03:53:44.324Z,89.21
2018-01-13T03:56:11.730Z,89.17
2018-01-13T03:58:39.141Z,89.24
2018-01-13T04:01:06.563Z,89.20
2018-01-13T04:03:33.973Z,89.08
2018-01-13T04:06:01.407Z,88.86
2018-01-13T04:08:28.805Z,88.75
2018-01-13T04:10:56.213Z,88.63
2018-01-13T04:13:23.636Z,88.56
2018-01-13T04:15:51.056Z,88.60
2018-01-13T04:18:18.469Z,88.57
2018-01-13T04:20:45.886Z,88.61
2018-01-13T04:23:13.293Z,88.60
2018-01-13T04:25:40.709Z,88.55
2018-01-13T04:28:08.123Z,88.64
2018-01-13T04:30:35.549Z,88.53
2018-01-13T04:33:02.957Z,88.20
2018-01-13T04:35:30.365Z,88.31
2018-01-13T04:37:57.789Z,88.41
2018-01-13T04:40:25.192Z,88.17
2018-01-13T04:42:52.629Z,88.05
2018-01-13T04:45:20.047Z,88.03
2018-01-13T04:47:47.458Z,88.01
2018-01-13T04:50:14.883Z,88.15
2018-01-13T04:52:42.297Z,88.29
2018-01-13T04:55:09.722Z,88.25
2018-01-13T04:57:37.137Z,88.35
2018-01-13T05:00:04.551Z,88.30
2018-01-13T05:02:31.961Z,88.43
2018-01-13T05:04:59.376Z,88.50
2018-01-13T05:07:26.808Z,88.49
2018-01-13T05:09:54.221Z,88.54
2018-01-13T05:12:21.632Z,88.48
2018-01-13T05:14:49.044Z,87.89
2018-01-13T05:17:16.457Z,87.83
2018-01-13T05:19:43.881Z,87.92
2018-01-13T05:22:11.313Z,88.12
2018-01-13T05:24:38.726Z,88.14
2018-01-13T05:27:06.145Z,88.02
2018-01-13T05:29:33.549Z,87.50
2018-01-13T05:32:00.974Z,87.51
2018-01-13T05:34:28.384Z,87.41
2018-01-13T05:36:55.802Z,87.50
2018-01-13T05:39:23.225Z,87.59
2018-01-13T05:41:50.633Z,87.78
2018-01-13T05:44:18.062Z,87.53
2018-01-13T05:46:45.493Z,87.42
2018-01-13T05:49:12.905Z,87.56
2018-01-13T05:51:40.332Z,87.54
2018-01-13T05:54:07.761Z,87.27
2018-01-13T05:56:35.194Z,87.26
2018-01-13T05:59:02.593Z,87.07
2018-01-13T06:01:30.006Z,86.18
2018-01-13T06:03:57.437Z,85.74
2018-01-13T06:06:24.845Z,85.39
2018-01-13T06:08:52.285Z,85.54
2018-01-13T06:11:19.712Z,85.48
2018-01-13T06:13:47.126Z,85.41
2018-01-13T06:16:14.541Z,85.72
2018-01-13T06:18:41.961Z,85.18
2018-01-13T06:21:09.389Z,85.36
2018-01-13T06:23:36.798Z,85.04
2018-01-13T06:26:04.209Z,84.44
2018-01-13T06:28:31.629Z,84.80
2018-01-13T06:30:59.038Z,84.55
2018-01-13T06:33:26.467Z,84.25
2018-01-13T06:35:53.869Z,84.21
2018-01-13T06:38:21.273Z,83.76
2018-01-13T06:40:48.694Z,83.95
2018-01-13T06:43:16.107Z,84.28
2018-01-13T06:45:43.517Z,84.05
2018-01-13T06:48:10.929Z,84.34
2018-01-13T06:50:38.338Z,84.49
2018-01-13T06:53:05.754Z,84.52
2018-01-13T06:55:33.170Z,84.62
2018-01-13T06:58:00.601Z,84.76
2018-01-13T07:00:28.019Z,84.47
2018-01-13T07:02:55.422Z,84.37
2018-01-13T07:05:22.845Z,84.22
2018-01-13T07:07:50.257Z,84.27
2018-01-13T07:10:17.681Z,84.23
2018-01-13T07:12:45.094Z,84.17
2018-01-13T07:15:12.501Z,83.70
2018-01-13T07:17:39.915Z,83.50
2018-01-13T07:20:07.329Z,83.19
2018-01-13T07:22:34.752Z,82.97
2018-01-13T07:25:02.162Z,82.83
2018-01-13T07:27:29.573Z,82.31
2018-01-13T07:29:56.985Z,82.48
2018-01-13T07:32:24.565Z,81.77
2018-01-13T07:34:51.999Z,81.53
2018-01-13T07:37:19.409Z,81.68
2018-01-13T07:39:46.821Z,81.16
2018-01-13T07:42:14.233Z,80.74
2018-01-13T07:44:41.644Z,80.76
2018-01-13T07:47:09.065Z,81.35
2018-01-13T07:49:36.480Z,81.47
2018-01-13T07:52:03.897Z,81.92
2018-01-13T07:54:31.313Z,81.80
2018-01-13T07:56:58.721Z,81.14
2018-01-13T07:59:26.173Z,81.20
2018-01-13T08:01:53.593Z,81.25
2018-01-13T08:04:21.005Z,81.04
2018-01-13T08:06:48.421Z,79.74
2018-01-13T08:09:15.860Z,80.25
2018-01-13T08:11:43.289Z,80.00
2018-01-13T08:14:10.701Z,79.80
2018-01-13T08:16:38.117Z,78.99
2018-01-13T08:19:05.673Z,79.23
2018-01-13T08:21:33.076Z,79.45
2018-01-13T08:24:00.497Z,79.25
2018-01-13T08:26:27.909Z,79.56
2018-01-13T08:28:55.326Z,79.85
2018-01-13T08:31:22.760Z,79.07
2018-01-13T08:33:50.173Z,79.01
2018-01-13T08:36:17.599Z,78.94
2018-01-13T08:38:45.006Z,78.84
2018-01-13T08:41:12.421Z,78.71
2018-01-13T08:43:39.929Z,78.53
2018-01-13T08:46:07.334Z,78.52
2018-01-13T08:48:34.765Z,78.18
2018-01-13T08:51:02.173Z,78.04
2018-01-13T08:53:29.593Z,78.25
2018-01-13T08:55:57.005Z,78.87
2018-01-13T08:58:24.421Z,77.95
2018-01-13T09:00:51.857Z,77.49
2018-01-13T09:03:19.265Z,77.61
2018-01-13T09:05:46.693Z,77.74
2018-01-13T09:08:14.117Z,77.64
2018-01-13T09:10:41.528Z,78.07
2018-01-13T09:13:08.965Z,77.09
2018-01-13T09:15:36.373Z,77.49
2018-01-13T09:18:03.782Z,76.78
2018-01-13T09:20:31.208Z,76.43
2018-01-13T09:22:58.613Z,76.93
2018-01-13T09:25:26.046Z,76.36
2018-01-13T09:27:53.457Z,76.46
2018-01-13T09:30:20.921Z,76.48
2018-01-13T09:32:48.337Z,76.25
2018-01-13T09:35:15.750Z,75.56
2018-01-13T09:37:43.165Z,75.93
2018-01-13T09:40:10.597Z,75.03
2018-01-13T09:42:38.010Z,75.56
2018-01-13T09:45:05.429Z,75.66
2018-01-13T09:47:32.844Z,76.04
2018-01-13T09:50:00.981Z,75.74
2018-01-13T09:52:28.381Z,74.81
2018-01-13T09:54:56.313Z,73.63
2018-01-13T09:57:26.903Z,73.42
2018-01-13T09:59:54.306Z,74.79
2018-01-13T10:02:21.744Z,73.96
2018-01-13T10:04:49.157Z,74.61
2018-01-13T10:07:16.578Z,74.36
2018-01-13T10:09:43.988Z,75.00
2018-01-13T10:12:11.411Z,75.05
2018-01-13T10:14:38.841Z,75.03
2018-01-13T10:17:06.257Z,74.35
2018-01-13T10:19:33.671Z,74.05
2018-01-13T10:22:01.200Z,72.84
2018-01-13T10:24:28.609Z,72.78
2018-01-13T10:26:56.049Z,72.05
2018-01-13T10:29:23.460Z,72.23
2018-01-13T10:31:50.868Z,71.70
2018-01-13T10:34:18.293Z,72.87
2018-01-13T10:36:45.705Z,71.19
2018-01-13T10:41:39.850Z,71.84
2018-01-13T10:44:07.277Z,70.39
2018-01-13T10:46:34.689Z,70.33
2018-01-13T10:49:02.121Z,70.29
2018-01-13T10:51:38.527Z,70.36
2018-01-13T10:54:06.749Z,69.71
2018-01-13T10:56:34.157Z,71.09
2018-01-13T10:59:01.580Z,71.00
2018-01-13T11:01:28.985Z,69.55
2018-01-13T11:03:56.409Z,69.41
2018-01-13T11:06:23.821Z,69.15
2018-01-13T11:08:51.249Z,69.22
2018-01-13T11:11:18.659Z,68.87
2018-01-13T11:13:46.070Z,69.72
2018-01-13T11:16:13.493Z,69.52
2018-01-13T11:18:40.917Z,68.43
2018-01-13T11:21:08.337Z,69.34
2018-01-13T11:23:35.757Z,69.12
2018-01-13T11:26:03.189Z,67.66
2018-01-13T11:28:30.601Z,67.87
2018-01-13T11:30:58.020Z,68.48
2018-01-13T11:33:25.456Z,68.11
2018-01-13T11:35:52.925Z,68.66
2018-01-13T11:38:20.353Z,69.30
2018-01-13T11:40:47.782Z,68.92
2018-01-13T11:43:15.201Z,68.12
2018-01-13T11:45:42.613Z,67.11
2018-01-13T11:48:10.041Z,69.02
2018-01-13T11:50:37.461Z,67.42
2018-01-13T11:53:04.869Z,67.47
2018-01-13T11:55:32.286Z,66.13
2018-01-13T11:57:59.706Z,68.80
2018-01-13T12:00:27.113Z,66.78
2018-01-13T12:02:54.528Z,68.30
2018-01-13T12:05:21.968Z,67.11
2018-01-13T12:07:49.389Z,68.11
2018-01-13T12:10:16.811Z,66.64
2018-01-13T12:12:44.221Z,67.19
2018-01-13T12:15:11.641Z,66.95
2018-01-13T12:17:39.049Z,67.89
2018-01-13T12:20:06.461Z,66.99
2018-01-13T12:22:33.868Z,66.05
2018-01-13T12:25:01.302Z,65.47
2018-01-13T12:27:28.709Z,64.78
2018-01-13T12:29:56.229Z,64.75
2018-01-13T12:32:23.646Z,64.60
2018-01-13T12:34:51.053Z,64.70
2018-01-13T12:37:18.498Z,63.60
2018-01-13T12:39:45.908Z,63.24
2018-01-13T12:42:15.472Z,64.01
2018-01-13T12:44:42.969Z,63.95
2018-01-13T12:47:10.378Z,64.79
2018-01-13T12:49:37.797Z,66.22
2018-01-13T12:52:05.234Z,64.30
2018-01-13T12:54:32.665Z,64.37
2018-01-13T12:57:01.122Z,64.36
2018-01-13T12:59:28.617Z,64.47
2018-01-13T13:01:56.965Z,64.68
2018-01-13T13:04:24.965Z,64.34
2018-01-13T13:06:52.405Z,64.91
2018-01-13T13:09:19.857Z,65.08
2018-01-13T13:11:47.268Z,64.19
2018-01-13T13:14:14.711Z,65.19
2018-01-13T13:16:42.094Z,64.22
2018-01-13T13:19:09.616Z,65.20
2018-01-13T13:21:37.002Z,65.02
2018-01-13T13:24:04.463Z,65.14
2018-01-13T13:26:35.778Z,65.43
2018-01-13T13:29:03.224Z,66.61
2018-01-13T13:31:30.635Z,65.80
2018-01-13T13:33:58.081Z,65.91
2018-01-13T13:36:26.318Z,64.64
2018-01-13T13:38:53.885Z,64.84
2018-01-13T13:41:21.369Z,64.26
2018-01-13T13:43:48.786Z,64.72
2018-01-13T13:46:17.132Z,64.69
2018-01-13T13:48:45.672Z,62.28
2018-01-13T13:51:13.205Z,61.80
2018-01-13T13:53:40.609Z,60.99
2018-01-13T13:56:08.021Z,61.22
2018-01-13T13:58:35.857Z,60.99
2018-01-13T14:01:28.204Z,60.78
2018-01-13T14:03:30.753Z,61.31
2018-01-13T14:05:58.165Z,61.26
2018-01-13T14:08:26.606Z,61.64
2018-01-13T14:10:54.025Z,60.75
2018-01-13T14:13:21.448Z,60.85
2018-01-13T14:15:48.860Z,61.95
2018-01-13T14:18:16.277Z,61.77
2018-01-13T14:20:43.685Z,61.93
2018-01-13T14:23:11.171Z,62.53
2018-01-13T14:25:38.595Z,62.47
2018-01-13T14:28:06.016Z,62.85
2018-01-13T14:30:33.425Z,63.07
2018-01-13T14:33:00.868Z,62.93
2018-01-13T14:35:28.281Z,62.76
2018-01-13T14:37:55.725Z,62.98
2018-01-13T14:40:23.141Z,62.66
2018-01-13T14:42:50.866Z,63.84
2018-01-13T14:45:18.269Z,63.08
2018-01-13T14:47:45.698Z,62.85
2018-01-13T14:50:13.108Z,63.20
2018-01-13T14:52:41.220Z,63.85
2018-01-13T14:55:08.640Z,63.96
2018-01-13T14:57:36.057Z,63.24
2018-01-13T15:00:03.474Z,63.99
2018-01-13T15:02:30.888Z,63.47
2018-01-13T15:04:58.310Z,64.11
2018-01-13T15:07:25.719Z,64.79
2018-01-13T15:09:53.141Z,64.57
2018-01-13T15:12:20.558Z,65.73
2018-01-13T15:14:47.970Z,65.37
2018-01-13T15:17:15.433Z,65.05
2018-01-13T15:19:43.744Z,65.82
2018-01-13T15:22:11.181Z,66.52
2018-01-13T15:24:38.618Z,67.34
2018-01-13T15:27:06.050Z,67.27
2018-01-13T15:29:33.490Z,67.42
2018-01-13T15:32:00.894Z,67.57
2018-01-13T15:34:29.033Z,67.92
2018-01-13T15:36:56.450Z,67.80
2018-01-13T15:39:23.881Z,67.97
2018-01-13T15:41:51.294Z,68.35
2018-01-13T15:44:18.709Z,67.73
2018-01-13T15:46:46.121Z,67.13
2018-01-13T15:49:13.606Z,68.34
2018-01-13T15:51:41.014Z,67.51
2018-01-13T15:54:24.886Z,67.83
2018-01-13T15:56:54.633Z,68.04
2018-01-13T15:59:22.095Z,68.26
2018-01-13T16:01:49.605Z,68.29
2018-01-13T16:04:17.009Z,67.93
2018-01-13T16:06:44.432Z,67.17
2018-01-13T16:09:11.845Z,68.26
2018-01-13T16:11:39.269Z,68.59
2018-01-13T16:14:07.705Z,68.74
2018-01-13T16:16:35.125Z,69.20
2018-01-13T16:19:02.537Z,68.54
2018-01-13T16:21:32.792Z,68.02
2018-01-13T16:24:02.717Z,68.54
2018-01-13T16:26:33.367Z,69.17
2018-01-13T16:29:02.199Z,68.20
2018-01-13T16:31:30.370Z,68.38
2018-01-13T16:34:01.594Z,68.21
2018-01-13T16:36:31.310Z,68.61
2018-01-13T16:39:05.020Z,68.64
2018-01-13T16:41:38.148Z,69.40
2018-01-13T16:44:07.069Z,69.17
2018-01-13T16:46:38.932Z,69.48
2018-01-13T16:49:10.022Z,68.92
2018-01-13T16:51:37.475Z,68.67
2018-01-13T16:54:04.873Z,69.01
2018-01-13T16:56:32.293Z,69.12
2018-01-13T16:58:59.729Z,68.30
2018-01-13T17:01:27.157Z,68.46
2018-01-13T17:03:54.578Z,68.91
2018-01-13T17:06:21.985Z,68.92
2018-01-13T17:08:49.401Z,69.17
2018-01-13T17:11:16.846Z,69.91
2018-01-13T17:13:44.289Z,69.68
2018-01-13T17:16:14.110Z,69.54
2018-01-13T17:18:44.952Z,69.58
2018-01-13T17:21:14.442Z,69.42
2018-01-13T17:23:45.587Z,69.78
2018-01-13T17:26:14.522Z,69.41
2018-01-13T17:28:42.949Z,70.58
2018-01-13T17:31:14.146Z,69.42
2018-01-13T17:33:43.586Z,69.77
2018-01-13T17:36:12.636Z,69.66
2018-01-13T17:38:42.147Z,69.69
2018-01-13T17:41:13.010Z,69.47
2018-01-13T17:43:42.580Z,70.48
2018-01-13T17:46:10.114Z,70.33
2018-01-13T17:48:37.568Z,69.45
2018-01-13T17:51:04.973Z,69.10
2018-01-13T17:53:32.397Z,69.44
2018-01-13T17:55:59.825Z,69.33
2018-01-13T17:58:29.229Z,69.96
2018-01-13T18:00:56.669Z,69.74
2018-01-13T18:03:24.077Z,69.43
2018-01-13T18:05:51.528Z,69.02
2018-01-13T18:08:19.048Z,69.13
2018-01-13T18:10:46.467Z,69.17
2018-01-13T18:13:13.878Z,69.08
2018-01-13T18:15:41.291Z,69.26
2018-01-13T18:18:08.738Z,69.97
2018-01-13T18:20:36.151Z,69.19
2018-01-13T18:23:03.569Z,69.24
2018-01-13T18:25:30.987Z,69.34
2018-01-13T18:27:58.401Z,69.09
2018-01-13T18:30:25.823Z,68.92
2018-01-13T18:32:53.248Z,68.48
2018-01-13T18:35:20.665Z,68.99
2018-01-13T18:37:48.119Z,69.23
2018-01-13T18:40:15.583Z,68.19
2018-01-13T18:42:42.998Z,68.91
2018-01-13T18:45:10.415Z,68.15
2018-01-13T18:47:37.838Z,69.40
2018-01-13T18:50:05.258Z,68.12
2018-01-13T18:52:32.692Z,68.91
2018-01-13T18:55:00.123Z,69.77
2018-01-13T18:57:27.548Z,69.96
2018-01-13T18:59:54.979Z,69.55
2018-01-13T19:02:22.385Z,67.88
2018-01-13T19:04:49.815Z,68.16
2018-01-13T19:07:17.249Z,68.26
2018-01-13T19:09:44.678Z,68.19
2018-01-13T19:12:12.093Z,67.43
2018-01-13T19:14:39.554Z,67.90
2018-01-13T19:17:06.975Z,68.25
2018-01-13T19:19:34.477Z,67.80
2018-01-13T19:22:02.394Z,67.67
2018-01-13T19:24:29.794Z,69.00
2018-01-13T19:26:58.201Z,67.18
2018-01-13T19:29:26.217Z,67.61
2018-01-13T19:31:54.569Z,68.00
2018-01-13T19:34:21.981Z,67.72
2018-01-13T19:36:53.474Z,68.06
2018-01-13T19:39:20.933Z,66.80
2018-01-13T19:41:48.394Z,66.49
2018-01-13T19:44:17.373Z,67.94
2018-01-13T19:46:44.825Z,68.69
2018-01-13T19:49:13.185Z,67.92
2018-01-13T19:51:41.449Z,67.69
2018-01-13T19:54:09.899Z,67.93
2018-01-13T19:56:37.978Z,67.77
2018-01-13T19:59:05.385Z,67.97
2018-01-13T20:01:32.862Z,67.26
2018-01-13T20:04:00.369Z,67.51
2018-01-13T20:06:27.784Z,66.88
2018-01-13T20:08:55.218Z,66.85
2018-01-13T20:11:22.634Z,67.68
2018-01-13T20:13:51.830Z,68.40
2018-01-13T20:16:19.241Z,68.40
2018-01-13T20:18:46.658Z,68.20
2018-01-13T20:21:14.073Z,67.86
2018-01-13T20:23:41.494Z,67.32
2018-01-13T20:26:08.929Z,67.29
2018-01-13T20:28:36.335Z,68.23
2018-01-13T20:31:03.773Z,67.68
2018-01-13T20:33:31.264Z,68.41
2018-01-13T20:35:58.642Z,67.28
2018-01-13T20:38:26.053Z,67.98
2018-01-13T20:40:53.480Z,67.61
2018-01-13T20:43:20.885Z,68.88
2018-01-13T20:45:48.305Z,68.24
2018-01-13T20:48:15.764Z,68.52
2018-01-13T20:50:43.179Z,69.18
2018-01-13T20:53:10.597Z,68.37
2018-01-13T20:55:38.013Z,67.98
2018-01-13T20:58:05.437Z,68.06
2018-01-13T21:00:32.849Z,67.64
2018-01-13T21:03:00.262Z,68.36
2018-01-13T21:05:27.678Z,68.43
2018-01-13T21:07:55.090Z,67.89
2018-01-13T21:10:22.497Z,68.02
2018-01-13T21:12:49.910Z,67.99
2018-01-13T21:15:17.326Z,68.06
2018-01-13T21:17:44.738Z,68.39
2018-01-13T21:20:12.170Z,68.36
2018-01-13T21:22:39.665Z,68.14
2018-01-13T21:25:07.078Z,68.24
2018-01-13T21:27:34.492Z,68.66
2018-01-13T21:30:01.901Z,69.15
2018-01-13T21:32:29.317Z,68.51
2018-01-13T21:34:56.729Z,68.55
2018-01-13T21:37:24.164Z,68.08
2018-01-13T21:39:51.581Z,68.13
2018-01-13T21:42:19.012Z,69.03
2018-01-13T21:44:46.425Z,69.25
2018-01-13T21:47:13.852Z,67.91
2018-01-13T21:49:41.270Z,68.57
2018-01-13T21:52:08.697Z,68.34
2018-01-13T21:54:36.114Z,69.15
2018-01-13T21:57:03.536Z,69.14
2018-01-13T21:59:30.985Z,69.51
2018-01-13T22:01:58.406Z,68.51
2018-01-13T22:04:25.825Z,68.73
2018-01-13T22:06:53.246Z,69.43
2018-01-13T22:09:20.649Z,69.42
2018-01-13T22:11:48.074Z,68.72
2018-01-13T22:14:15.488Z,69.28
2018-01-13T22:16:42.916Z,68.76
2018-01-13T22:19:10.321Z,68.66
2018-01-13T22:21:37.757Z,68.90
2018-01-13T22:24:05.165Z,69.40
2018-01-13T22:26:32.585Z,69.42
2018-01-13T22:29:00.019Z,69.59
2018-01-13T22:31:27.431Z,69.10
2018-01-13T22:33:54.841Z,68.96
2018-01-13T22:36:22.258Z,69.61
2018-01-13T22:38:49.704Z,70.53
2018-01-13T22:41:17.117Z,69.18
2018-01-13T22:43:44.529Z,69.28
2018-01-13T22:46:11.944Z,69.63
2018-01-13T22:48:39.366Z,68.83
2018-01-13T22:51:06.777Z,69.71
2018-01-13T22:53:34.208Z,70.27
2018-01-13T22:56:01.629Z,70.26
2018-01-13T22:58:29.088Z,69.75
2018-01-13T23:00:56.509Z,70.57
2018-01-13T23:03:23.975Z,69.65
2018-01-13T23:05:51.378Z,71.35
2018-01-13T23:08:18.846Z,70.74
2018-01-13T23:10:46.256Z,70.61
2018-01-13T23:13:13.689Z,69.76
2018-01-13T23:15:41.633Z,70.01
2018-01-13T23:18:09.069Z,70.06
2018-01-13T23:20:36.477Z,70.25
2018-01-13T23:23:03.910Z,71.93
2018-01-13T23:25:31.327Z,71.22
2018-01-13T23:27:58.738Z,70.53
2018-01-13T23:30:26.149Z,71.31
2018-01-13T23:32:53.557Z,71.11
2018-01-13T23:35:21.034Z,70.69
2018-01-13T23:37:48.440Z,71.11
2018-01-13T23:40:15.873Z,70.76
2018-01-13T23:42:43.296Z,71.37
2018-01-13T23:45:10.701Z,70.06
2018-01-13T23:47:38.118Z,70.52
2018-01-13T23:50:05.618Z,70.82
2018-01-13T23:52:33.040Z,70.88
2018-01-13T23:55:00.455Z,70.47
2018-01-13T23:57:27.910Z,70.84
2018-01-13T23:59:55.324Z,71.50
